createdAt,value
2023-05-22T00:00:12.700Z,101193.63
2023-05-22T00:02:39.270Z,101187.13
2023-05-22T00:05:09.940Z,101190.66
2023-05-22T00:07:36.255Z,101189.00
2023-05-22T00:10:02.518Z,101185.50
2023-05-22T00:12:28.774Z,101178.19
2023-05-22T00:14:58.560Z,101180.09
2023-05-22T00:17:27.574Z,101167.38
2023-05-22T00:19:55.620Z,101170.09
2023-05-22T00:22:23.036Z,101161.97
2023-05-22T00:24:49.278Z,101165.50
2023-05-22T00:27:15.529Z,101160.09
2023-05-22T00:29:41.757Z,101154.69
2023-05-22T00:32:11.475Z,101156.56
2023-05-22T00:34:38.246Z,101161.97
2023-05-22T00:37:06.767Z,101150.38
2023-05-22T00:39:35.610Z,101155.78
2023-05-22T00:42:01.942Z,101156.56
2023-05-22T00:44:28.261Z,101154.69
2023-05-22T00:46:54.621Z,101150.38
2023-05-22T00:49:20.975Z,101151.16
2023-05-22T00:51:47.201Z,101150.38
2023-05-22T00:54:21.652Z,101144.97
2023-05-22T00:56:48.087Z,101145.75
2023-05-22T00:59:16.067Z,101145.75
2023-05-22T01:01:42.413Z,101142.25
2023-05-22T01:04:10.351Z,101142.25
2023-05-22T01:06:36.637Z,101139.56
2023-05-22T01:09:09.176Z,101141.66
2023-05-22T01:11:35.889Z,101153.06
2023-05-22T01:14:06.477Z,101145.19
2023-05-22T01:16:34.918Z,101147.91
2023-05-22T01:19:01.325Z,101150.38
2023-05-22T01:21:29.330Z,101147.66
2023-05-22T01:23:55.645Z,101143.28
2023-05-22T01:26:23.361Z,101142.50
2023-05-22T01:28:49.684Z,101147.91
2023-05-22T01:31:24.794Z,101148.69
2023-05-22T01:33:51.198Z,101148.69
2023-05-22T01:36:21.379Z,101153.88
2023-05-22T01:38:47.917Z,101153.06
2023-05-22T01:41:14.188Z,101148.47
2023-05-22T01:43:40.446Z,101149.53
2023-05-22T01:46:10.008Z,101142.50
2023-05-22T01:48:36.382Z,101137.88
2023-05-22T01:51:04.452Z,101143.28
2023-05-22T01:53:34.619Z,101139.78
2023-05-22T01:56:00.880Z,101142.25
2023-05-22T01:58:27.150Z,101144.97
2023-05-22T02:00:53.396Z,101148.69
2023-05-22T02:03:19.837Z,101150.38
2023-05-22T02:05:48.804Z,101143.28
2023-05-22T02:08:16.088Z,101131.69
2023-05-22T02:10:44.545Z,101143.28
2023-05-22T02:13:11.390Z,101139.78
2023-05-22T02:15:37.766Z,101134.16
2023-05-22T02:18:04.264Z,101139.56
2023-05-22T02:20:35.030Z,101138.13
2023-05-22T02:23:01.297Z,101130.84
2023-05-22T02:25:27.621Z,101136.00
2023-05-22T02:27:53.906Z,101134.38
2023-05-22T02:30:24.111Z,101125.44
2023-05-22T02:32:53.925Z,101122.75
2023-05-22T02:35:21.031Z,101120.88
2023-05-22T02:37:47.271Z,101126.28
2023-05-22T02:40:13.590Z,101123.56
2023-05-22T02:42:43.523Z,101123.34
2023-05-22T02:45:11.364Z,101117.34
2023-05-22T02:47:37.725Z,101122.75
2023-05-22T02:50:09.145Z,101123.56
2023-05-22T02:52:35.475Z,101132.72
2023-05-22T02:55:06.667Z,101114.63
2023-05-22T02:57:33.210Z,101121.09
2023-05-22T02:59:59.865Z,101117.34
2023-05-22T03:02:26.242Z,101120.03
2023-05-22T03:04:56.864Z,101106.75
2023-05-22T03:07:25.160Z,101114.63
2023-05-22T03:09:51.429Z,101120.03
2023-05-22T03:12:22.220Z,101116.50
2023-05-22T03:14:48.470Z,101114.63
2023-05-22T03:17:15.951Z,101107.59
2023-05-22T03:19:42.356Z,101115.69
2023-05-22T03:22:08.620Z,101111.94
2023-05-22T03:24:35.192Z,101113.78
2023-05-22T03:27:04.209Z,101114.63
2023-05-22T03:29:33.380Z,101113.78
2023-05-22T03:31:59.619Z,101112.16
2023-05-22T03:34:25.862Z,101113.78
2023-05-22T03:36:52.480Z,101118.41
2023-05-22T03:39:28.706Z,101113.78
2023-05-22T03:41:57.524Z,101117.56
2023-05-22T03:44:23.792Z,101123.81
2023-05-22T03:46:50.079Z,101123.81
2023-05-22T03:49:16.317Z,101124.59
2023-05-22T03:51:42.817Z,101126.50
2023-05-22T03:54:09.089Z,101124.59
2023-05-22T03:56:35.344Z,101117.56
2023-05-22T03:59:06.280Z,101129.22
2023-05-22T04:01:32.541Z,101124.03
2023-05-22T04:03:58.795Z,101116.75
2023-05-22T04:06:25.080Z,101122.97
2023-05-22T04:08:51.370Z,101126.50
2023-05-22T04:11:17.743Z,101125.69
2023-05-22T04:13:47.853Z,101124.88
2023-05-22T04:16:14.103Z,101124.03
2023-05-22T04:18:40.546Z,101126.19
2023-05-22T04:21:06.818Z,101117.81
2023-05-22T04:23:33.190Z,101114.31
2023-05-22T04:26:00.684Z,101114.31
2023-05-22T04:28:27.034Z,101118.06
2023-05-22T04:30:53.596Z,101118.06
2023-05-22T04:33:23.116Z,101124.28
2023-05-22T04:35:52.186Z,101118.06
2023-05-22T04:38:18.444Z,101118.06
2023-05-22T04:40:44.723Z,101118.88
2023-05-22T04:43:10.999Z,101122.66
2023-05-22T04:45:37.336Z,101123.47
2023-05-22T04:48:03.741Z,101134.28
2023-05-22T04:50:29.996Z,101127.22
2023-05-22T04:52:56.322Z,101122.66
2023-05-22T04:55:24.123Z,101121.00
2023-05-22T04:57:50.402Z,101126.41
2023-05-22T05:00:20.948Z,101128.06
2023-05-22T05:02:47.495Z,101119.94
2023-05-22T05:05:13.820Z,101124.28
2023-05-22T05:07:40.164Z,101117.25
2023-05-22T05:10:06.460Z,101121.81
2023-05-22T05:12:32.712Z,101119.94
2023-05-22T05:14:58.948Z,101122.66
2023-05-22T05:17:28.174Z,101115.59
2023-05-22T05:19:54.557Z,101118.31
2023-05-22T05:22:23.935Z,101123.72
2023-05-22T05:24:50.265Z,101121.81
2023-05-22T05:27:18.206Z,101119.09
2023-05-22T05:29:44.497Z,101114.78
2023-05-22T05:32:10.915Z,101115.47
2023-05-22T05:34:42.054Z,101116.41
2023-05-22T05:37:08.473Z,101117.25
2023-05-22T05:39:34.754Z,101120.78
2023-05-22T05:42:01.000Z,101120.50
2023-05-22T05:44:27.484Z,101120.78
2023-05-22T05:46:53.791Z,101121.00
2023-05-22T05:49:20.135Z,101129.13
2023-05-22T05:51:46.490Z,101127.22
2023-05-22T05:54:14.666Z,101124.28
2023-05-22T05:56:46.422Z,101122.66
2023-05-22T05:59:19.118Z,101119.72
2023-05-22T06:01:48.130Z,101124.28
2023-05-22T06:04:18.734Z,101119.94
2023-05-22T06:06:45.121Z,101124.28
2023-05-22T06:09:11.393Z,101124.28
2023-05-22T06:11:37.647Z,101117.00
2023-05-22T06:14:09.081Z,101118.06
2023-05-22T06:16:35.379Z,101111.84
2023-05-22T06:19:02.085Z,101118.88
2023-05-22T06:21:34.298Z,101109.69
2023-05-22T06:24:01.275Z,101110.75
2023-05-22T06:26:28.706Z,101105.34
2023-05-22T06:28:57.285Z,101104.28
2023-05-22T06:31:23.613Z,101107.00
2023-05-22T06:33:54.841Z,101108.91
2023-05-22T06:36:21.130Z,101101.84
2023-05-22T06:38:47.423Z,101107.00
2023-05-22T06:41:13.698Z,101109.69
2023-05-22T06:43:40.791Z,101104.28
2023-05-22T06:46:07.489Z,101115.09
2023-05-22T06:48:33.802Z,101108.66
2023-05-22T06:51:00.075Z,101103.25
2023-05-22T06:53:27.934Z,101097.84
2023-05-22T06:55:57.451Z,101108.66
2023-05-22T06:58:23.701Z,101105.94
2023-05-22T07:00:50.069Z,101113.78
2023-05-22T07:03:19.829Z,101109.47
2023-05-22T07:05:46.598Z,101118.41
2023-05-22T07:08:15.463Z,101116.50
2023-05-22T07:10:41.893Z,101115.47
2023-05-22T07:13:08.265Z,101116.25
2023-05-22T07:15:34.523Z,101111.94
2023-05-22T07:18:00.940Z,101114.63
2023-05-22T07:20:30.838Z,101116.25
2023-05-22T07:22:57.149Z,101117.09
2023-05-22T07:25:29.638Z,101120.63
2023-05-22T07:27:55.925Z,101120.63
2023-05-22T07:30:22.264Z,101114.63
2023-05-22T07:32:54.252Z,101112.75
2023-05-22T07:35:20.643Z,101113.31
2023-05-22T07:37:46.896Z,101107.91
2023-05-22T07:40:13.128Z,101103.34
2023-05-22T07:42:39.826Z,101117.94
2023-05-22T07:45:13.447Z,101101.72
2023-05-22T07:47:44.470Z,101106.03
2023-05-22T07:50:10.770Z,101114.97
2023-05-22T07:52:42.517Z,101108.97
2023-05-22T07:55:08.802Z,101107.69
2023-05-22T07:57:35.231Z,101104.13
2023-05-22T08:00:06.413Z,101107.91
2023-05-22T08:02:32.866Z,101110.38
2023-05-22T08:04:59.318Z,101116.63
2023-05-22T08:07:28.277Z,101113.09
2023-05-22T08:09:56.571Z,101115.78
2023-05-22T08:12:22.871Z,101114.72
2023-05-22T08:14:49.214Z,101116.63
2023-05-22T08:17:15.987Z,101106.59
2023-05-22T08:19:46.121Z,101113.69
2023-05-22T08:22:13.356Z,101112.00
2023-05-22T08:24:39.604Z,101107.44
2023-05-22T08:27:09.338Z,101107.44
2023-05-22T08:29:35.591Z,101108.28
2023-05-22T08:32:06.762Z,101100.16
2023-05-22T08:34:39.126Z,101108.28
2023-05-22T08:37:07.403Z,101105.56
2023-05-22T08:39:40.459Z,101097.47
2023-05-22T08:42:06.707Z,101104.50
2023-05-22T08:44:33.058Z,101093.69
2023-05-22T08:46:59.401Z,101090.97
2023-05-22T08:49:25.794Z,101091.53
2023-05-22T08:51:52.115Z,101082.63
2023-05-22T08:54:18.494Z,101082.38
2023-05-22T08:56:56.205Z,101082.38
2023-05-22T08:59:23.628Z,101084.28
2023-05-22T09:01:49.874Z,101082.38
2023-05-22T09:04:24.274Z,101079.66
2023-05-22T09:06:53.622Z,101077.78
2023-05-22T09:09:19.955Z,101071.56
2023-05-22T09:11:51.334Z,101076.97
2023-05-22T09:14:21.026Z,101070.50
2023-05-22T09:16:48.390Z,101065.91
2023-05-22T09:19:16.164Z,101068.59
2023-05-22T09:21:45.534Z,101069.44
2023-05-22T09:24:11.849Z,101064.03
2023-05-22T09:26:38.122Z,101068.38
2023-05-22T09:29:08.029Z,101064.88
2023-05-22T09:31:34.345Z,101063.78
2023-05-22T09:34:04.876Z,101062.16
2023-05-22T09:36:33.934Z,101049.44
2023-05-22T09:39:03.097Z,101052.16
2023-05-22T09:41:33.914Z,101051.06
2023-05-22T09:44:01.962Z,101048.38
2023-05-22T09:46:28.586Z,101051.91
2023-05-22T09:48:57.764Z,101050.59
2023-05-22T09:51:24.134Z,101055.53
2023-05-22T09:53:51.868Z,101056.31
2023-05-22T09:56:24.270Z,101051.50
2023-05-22T09:59:01.402Z,101050.19
2023-05-22T10:01:31.093Z,101047.50
2023-05-22T10:03:57.399Z,101043.72
2023-05-22T10:06:24.312Z,101033.72
2023-05-22T10:08:54.653Z,101038.06
2023-05-22T10:11:20.898Z,101038.66
2023-05-22T10:13:47.226Z,101028.66
2023-05-22T10:16:13.629Z,101027.00
2023-05-22T10:18:39.926Z,101029.47
2023-05-22T10:21:09.905Z,101023.81
2023-05-22T10:23:36.166Z,101020.59
2023-05-22T10:26:02.500Z,101020.84
2023-05-22T10:28:30.738Z,101023.91
2023-05-22T10:30:57.132Z,101016.59
2023-05-22T10:33:27.212Z,101020.72
2023-05-22T10:35:54.720Z,101022.91
2023-05-22T10:38:27.276Z,101016.94
2023-05-22T10:40:53.586Z,101012.09
2023-05-22T10:43:19.891Z,101010.75
2023-05-22T10:45:49.838Z,101003.84
2023-05-22T10:48:16.364Z,101008.44
2023-05-22T10:50:42.868Z,100991.13
2023-05-22T10:53:15.728Z,100993.84
2023-05-22T10:55:48.024Z,100993.84
2023-05-22T10:58:14.461Z,100994.41
2023-05-22T11:00:40.890Z,100993.34
2023-05-22T11:03:17.808Z,100997.09
2023-05-22T11:05:44.895Z,100985.72
2023-05-22T11:08:14.921Z,100984.66
2023-05-22T11:10:41.520Z,100981.94
2023-05-22T11:13:07.867Z,100983.84
2023-05-22T11:15:34.129Z,100974.91
2023-05-22T11:18:05.796Z,100983.84
2023-05-22T11:20:34.880Z,100974.06
2023-05-22T11:23:01.169Z,100973.28
2023-05-22T11:25:27.466Z,100972.44
2023-05-22T11:28:00.839Z,100970.56
2023-05-22T11:30:27.263Z,100969.50
2023-05-22T11:32:53.567Z,100973.28
2023-05-22T11:35:19.820Z,100975.75
2023-05-22T11:37:46.163Z,100967.63
2023-05-22T11:40:15.165Z,100969.50
2023-05-22T11:42:43.574Z,100968.66
2023-05-22T11:45:16.836Z,100959.22
2023-05-22T11:47:43.382Z,100958.19
2023-05-22T11:50:20.177Z,100959.81
2023-05-22T11:52:52.588Z,100963.59
2023-05-22T11:55:19.072Z,100953.56
2023-05-22T11:57:46.762Z,100961.44
2023-05-22T12:00:13.178Z,100945.47
2023-05-22T12:02:40.316Z,100948.75
2023-05-22T12:05:06.669Z,100950.13
2023-05-22T12:07:37.350Z,100944.72
2023-05-22T12:10:03.815Z,100946.34
2023-05-22T12:12:30.755Z,100948.81
2023-05-22T12:14:57.022Z,100950.94
2023-05-22T12:17:29.570Z,100945.28
2023-05-22T12:19:55.981Z,100946.91
2023-05-22T12:22:23.249Z,100946.66
2023-05-22T12:24:49.632Z,100942.09
2023-05-22T12:27:15.909Z,100936.09
2023-05-22T12:29:42.172Z,100939.38
2023-05-22T12:32:08.491Z,100935.59
2023-05-22T12:34:35.862Z,100939.94
2023-05-22T12:37:04.955Z,100926.16
2023-05-22T12:39:34.355Z,100931.31
2023-05-22T12:42:00.716Z,100925.91
2023-05-22T12:44:27.469Z,100924.28
2023-05-22T12:46:54.098Z,100929.44
2023-05-22T12:49:23.254Z,100924.84
2023-05-22T12:51:51.628Z,100919.44
2023-05-22T12:54:18.151Z,100921.88
2023-05-22T12:56:44.411Z,100916.47
2023-05-22T12:59:10.841Z,100910.81
2023-05-22T13:01:37.204Z,100920.00
2023-05-22T13:04:03.544Z,100914.34
2023-05-22T13:06:30.701Z,100907.03
2023-05-22T13:08:59.927Z,100917.59
2023-05-22T13:11:26.259Z,100911.41
2023-05-22T13:13:52.562Z,100914.91
2023-05-22T13:16:18.842Z,100911.13
2023-05-22T13:18:48.901Z,100911.66
2023-05-22T13:21:15.247Z,100917.59
2023-05-22T13:23:46.379Z,100910.06
2023-05-22T13:26:12.629Z,100907.63
2023-05-22T13:28:44.584Z,100907.13
2023-05-22T13:31:10.847Z,100903.59
2023-05-22T13:33:42.026Z,100908.75
2023-05-22T13:36:08.332Z,100904.13
2023-05-22T13:38:35.962Z,100904.97
2023-05-22T13:41:05.282Z,100893.88
2023-05-22T13:43:36.194Z,100898.22
2023-05-22T13:46:02.639Z,100897.16
2023-05-22T13:48:31.162Z,100901.75
2023-05-22T13:50:57.461Z,100890.09
2023-05-22T13:53:30.124Z,100892.56
2023-05-22T13:56:00.908Z,100886.91
2023-05-22T13:58:27.186Z,100886.66
2023-05-22T14:00:57.482Z,100887.19
2023-05-22T14:03:23.846Z,100880.16
2023-05-22T14:05:53.286Z,100872.94
2023-05-22T14:08:26.768Z,100877.50
2023-05-22T14:10:56.274Z,100878.63
2023-05-22T14:13:22.525Z,100875.97
2023-05-22T14:15:48.798Z,100875.19
2023-05-22T14:18:21.462Z,100860.56
2023-05-22T14:20:47.906Z,100868.44
2023-05-22T14:23:19.458Z,100871.94
2023-05-22T14:25:49.249Z,100865.19
2023-05-22T14:28:19.853Z,100865.78
2023-05-22T14:30:46.234Z,100857.41
2023-05-22T14:33:12.613Z,100859.03
2023-05-22T14:35:42.811Z,100846.88
2023-05-22T14:38:09.153Z,100850.66
2023-05-22T14:40:35.422Z,100859.09
2023-05-22T14:43:02.878Z,100851.53
2023-05-22T14:45:29.637Z,100844.22
2023-05-22T14:48:03.372Z,100851.25
2023-05-22T14:50:29.719Z,100847.75
2023-05-22T14:52:59.598Z,100847.50
2023-05-22T14:55:30.222Z,100838.53
2023-05-22T14:57:56.773Z,100842.38
2023-05-22T15:00:23.112Z,100835.09
2023-05-22T15:02:49.403Z,100843.47
2023-05-22T15:05:15.979Z,100841.53
2023-05-22T15:07:45.370Z,100828.00
2023-05-22T15:10:15.508Z,100827.75
2023-05-22T15:12:42.215Z,100827.75
2023-05-22T15:15:08.596Z,100825.91
2023-05-22T15:17:35.836Z,100822.13
2023-05-22T15:20:02.167Z,100822.94
2023-05-22T15:22:28.436Z,100819.97
2023-05-22T15:24:59.232Z,100822.69
2023-05-22T15:27:25.466Z,100808.31
2023-05-22T15:29:52.301Z,100817.81
2023-05-22T15:32:18.783Z,100810.19
2023-05-22T15:34:45.111Z,100811.56
2023-05-22T15:37:11.850Z,100803.19
2023-05-22T15:39:38.089Z,100803.19
2023-05-22T15:42:06.970Z,100798.84
2023-05-22T15:44:33.756Z,100792.91
2023-05-22T15:47:00.172Z,100791.25
2023-05-22T15:49:31.229Z,100794.78
2023-05-22T15:51:57.811Z,100789.09
2023-05-22T15:54:24.568Z,100785.31
2023-05-22T15:56:50.824Z,100777.19
2023-05-22T15:59:17.070Z,100774.47
2023-05-22T16:01:53.308Z,100773.66
2023-05-22T16:04:19.808Z,100776.38
2023-05-22T16:06:46.073Z,100777.19
2023-05-22T16:09:12.506Z,100768.25
2023-05-22T16:11:39.038Z,100768.25
2023-05-22T16:14:05.298Z,100762.56
2023-05-22T16:16:36.767Z,100756.63
2023-05-22T16:19:09.887Z,100764.75
2023-05-22T16:21:36.201Z,100761.22
2023-05-22T16:24:02.472Z,100762.88
2023-05-22T16:26:28.908Z,100762.06
2023-05-22T16:28:55.237Z,100769.09
2023-05-22T16:31:23.304Z,100758.53
2023-05-22T16:33:49.593Z,100756.63
2023-05-22T16:36:15.847Z,100758.81
2023-05-22T16:38:46.582Z,100758.53
2023-05-22T16:41:12.953Z,100762.31
2023-05-22T16:43:44.533Z,100765.03
2023-05-22T16:46:10.922Z,100756.91
2023-05-22T16:48:37.358Z,100761.50
2023-05-22T16:51:03.638Z,100758.81
2023-05-22T16:53:29.918Z,100751.72
2023-05-22T16:55:56.142Z,100755.28
2023-05-22T16:58:26.211Z,100751.72
2023-05-22T17:00:53.984Z,100757.16
2023-05-22T17:03:20.540Z,100760.94
2023-05-22T17:05:51.672Z,100750.09
2023-05-22T17:08:20.847Z,100763.66
2023-05-22T17:10:52.539Z,100759.84
2023-05-22T17:13:18.767Z,100759.84
2023-05-22T17:15:45.042Z,100760.09
2023-05-22T17:18:11.472Z,100755.53
2023-05-22T17:20:37.870Z,100758.22
2023-05-22T17:23:05.404Z,100756.59
2023-05-22T17:25:37.130Z,100753.91
2023-05-22T17:28:08.001Z,100759.31
2023-05-22T17:30:36.923Z,100771.22
2023-05-22T17:33:07.849Z,100764.72
2023-05-22T17:35:34.112Z,100771.22
2023-05-22T17:38:01.686Z,100759.31
2023-05-22T17:40:43.221Z,100756.03
2023-05-22T17:43:18.498Z,100762.28
2023-05-22T17:45:46.453Z,100757.69
2023-05-22T17:48:14.530Z,100761.44
2023-05-22T17:50:41.796Z,100759.81
2023-05-22T17:53:08.286Z,100754.97
2023-05-22T17:55:34.526Z,100754.16
2023-05-22T17:58:03.105Z,100752.53
2023-05-22T18:00:33.395Z,100749.00
2023-05-22T18:02:59.779Z,100753.31
2023-05-22T18:05:33.061Z,100758.75
2023-05-22T18:08:04.646Z,100750.88
2023-05-22T18:10:34.358Z,100752.78
2023-05-22T18:13:05.674Z,100757.13
2023-05-22T18:15:31.931Z,100743.78
2023-05-22T18:17:58.352Z,100745.44
2023-05-22T18:20:24.684Z,100748.16
2023-05-22T18:22:55.177Z,100744.41
2023-05-22T18:25:21.428Z,100740.03
2023-05-22T18:27:51.556Z,100742.50
2023-05-22T18:30:17.899Z,100744.41
2023-05-22T18:32:44.232Z,100733.56
2023-05-22T18:35:14.559Z,100734.63
2023-05-22T18:37:41.489Z,100732.72
2023-05-22T18:40:12.766Z,100738.97
2023-05-22T18:42:39.712Z,100723.53
2023-05-22T18:45:06.088Z,100722.72
2023-05-22T18:47:35.903Z,100728.94
2023-05-22T18:50:02.219Z,100729.19
2023-05-22T18:52:32.391Z,100735.19
2023-05-22T18:55:02.929Z,100733.56
2023-05-22T18:57:32.928Z,100731.66
2023-05-22T18:59:59.198Z,100739.78
2023-05-22T19:02:25.457Z,100745.19
2023-05-22T19:04:57.302Z,100733.56
2023-05-22T19:07:23.887Z,100744.41
2023-05-22T19:09:50.783Z,100750.63
2023-05-22T19:12:17.091Z,100752.53
2023-05-22T19:14:43.425Z,100741.69
2023-05-22T19:17:13.461Z,100749.00
2023-05-22T19:19:39.888Z,100744.41
2023-05-22T19:22:06.190Z,100754.41
2023-05-22T19:24:42.430Z,100749.81
2023-05-22T19:27:08.782Z,100752.53
2023-05-22T19:29:35.369Z,100752.53
2023-05-22T19:32:01.679Z,100757.13
2023-05-22T19:34:31.585Z,100757.13
2023-05-22T19:36:58.000Z,100758.19
2023-05-22T19:39:27.555Z,100749.81
2023-05-22T19:41:53.831Z,100759.81
2023-05-22T19:44:20.695Z,100753.56
2023-05-22T19:46:47.035Z,100759.81
2023-05-22T19:49:14.717Z,100760.91
2023-05-22T19:51:46.599Z,100763.63
2023-05-22T19:54:15.064Z,100762.75
2023-05-22T19:56:46.102Z,100760.03
2023-05-22T19:59:12.474Z,100753.56
2023-05-22T20:01:43.974Z,100762.75
2023-05-22T20:04:10.900Z,100761.69
2023-05-22T20:06:42.317Z,100756.53
2023-05-22T20:09:11.975Z,100757.34
2023-05-22T20:11:40.196Z,100755.72
2023-05-22T20:14:06.451Z,100751.91
2023-05-22T20:16:32.724Z,100748.41
2023-05-22T20:19:00.282Z,100747.59
2023-05-22T20:21:26.623Z,100743.25
2023-05-22T20:23:55.178Z,100744.88
2023-05-22T20:26:23.440Z,100753.00
2023-05-22T20:28:49.789Z,100749.47
2023-05-22T20:31:16.097Z,100744.03
2023-05-22T20:33:48.408Z,100748.66
2023-05-22T20:36:22.831Z,100749.75
2023-05-22T20:38:51.347Z,100750.53
2023-05-22T20:41:17.626Z,100752.16
2023-05-22T20:43:43.918Z,100751.38
2023-05-22T20:46:10.206Z,100759.50
2023-05-22T20:48:38.020Z,100761.38
2023-05-22T20:51:04.323Z,100764.09
2023-05-22T20:53:30.564Z,100757.88
2023-05-22T20:55:56.947Z,100753.25
2023-05-22T20:58:29.401Z,100747.03
2023-05-22T21:00:58.556Z,100751.63
2023-05-22T21:03:25.903Z,100743.50
2023-05-22T21:05:56.183Z,100748.09
2023-05-22T21:08:26.922Z,100750.00
2023-05-22T21:10:56.725Z,100744.59
2023-05-22T21:13:24.783Z,100750.00
2023-05-22T21:15:51.027Z,100748.09
2023-05-22T21:18:17.270Z,100750.81
2023-05-22T21:20:43.580Z,100748.09
2023-05-22T21:23:09.843Z,100748.34
2023-05-22T21:25:36.204Z,100752.72
2023-05-22T21:28:07.045Z,100746.47
2023-05-22T21:30:33.309Z,100745.63
2023-05-22T21:32:59.647Z,100738.59
2023-05-22T21:35:25.961Z,100738.59
2023-05-22T21:37:56.655Z,100737.81
2023-05-22T21:40:23.287Z,100732.38
2023-05-22T21:42:49.527Z,100732.38
2023-05-22T21:45:20.676Z,100738.59
2023-05-22T21:47:52.011Z,100735.88
2023-05-22T21:50:24.844Z,100735.09
2023-05-22T21:52:51.372Z,100735.88
2023-05-22T21:55:17.723Z,100727.22
2023-05-22T21:57:50.106Z,100729.69
2023-05-22T22:00:21.582Z,100723.44
2023-05-22T22:02:48.015Z,100723.44
2023-05-22T22:05:23.593Z,100714.47
2023-05-22T22:07:49.870Z,100723.44
2023-05-22T22:10:16.153Z,100726.13
2023-05-22T22:12:42.450Z,100724.50
2023-05-22T22:15:08.747Z,100718.28
2023-05-22T22:17:35.058Z,100714.72
2023-05-22T22:20:01.356Z,100715.56
2023-05-22T22:22:33.901Z,100709.31
2023-05-22T22:25:03.830Z,100709.31
2023-05-22T22:27:30.169Z,100708.53
2023-05-22T22:29:56.467Z,100703.91
2023-05-22T22:32:22.912Z,100700.41
2023-05-22T22:34:49.234Z,100698.47
2023-05-22T22:37:15.701Z,100696.84
2023-05-22T22:39:41.952Z,100704.19
2023-05-22T22:42:12.270Z,100690.66
2023-05-22T22:44:48.541Z,100696.84
2023-05-22T22:47:14.881Z,100687.13
2023-05-22T22:49:46.178Z,100689.81
2023-05-22T22:52:15.222Z,100683.56
2023-05-22T22:54:43.814Z,100681.69
2023-05-22T22:57:10.972Z,100680.88
2023-05-22T22:59:37.287Z,100678.16
2023-05-22T23:02:03.545Z,100684.41
2023-05-22T23:04:39.928Z,100687.13
2023-05-22T23:07:08.317Z,100682.78
2023-05-22T23:09:36.521Z,100671.94
2023-05-22T23:12:05.849Z,100663.00
2023-05-22T23:14:32.099Z,100666.53
2023-05-22T23:16:58.436Z,100661.13
2023-05-22T23:19:29.368Z,100660.53
2023-05-22T23:21:55.771Z,100656.78
2023-05-22T23:24:23.998Z,100664.09
2023-05-22T23:26:52.988Z,100669.25
2023-05-22T23:29:19.416Z,100658.66
2023-05-22T23:31:51.585Z,100658.66
2023-05-22T23:34:17.865Z,100653.25
2023-05-22T23:36:44.889Z,100650.81
2023-05-22T23:39:11.165Z,100649.72
2023-05-22T23:41:37.977Z,100648.09
2023-05-22T23:44:04.250Z,100644.31
2023-05-22T23:46:35.054Z,100646.22
2023-05-22T23:49:01.331Z,100643.75
2023-05-22T23:51:27.650Z,100642.69
2023-05-22T23:53:55.672Z,100632.41
2023-05-22T23:56:22.213Z,100634.56
2023-05-22T23:58:48.472Z,100635.63
